Terminal Aerodrome Forecast
Issued by NWS

Home | Current Version | Previous Version | Text Only | Print | Product List | Glossary On
Versions: 1 2 3 4 5 6 7 8 9 10 11 12 13 14
000
FTUS42 TJSJ 302320
TAFKPK
TAF
TKPK 302320Z 3100/3124 07010KT P6SM FEW018 SCT040
     FM311200 08012KT P6SM SCT018 SCT050
     FM312300 08008KT P6SM VCSH SCT018=

USA.gov is the U.S. government's official web portal to all federal, state and local government web resources and services.